Aeroporto :
LOGIN :

Iscrizione | Disclaimer

   EN    FR    IT 

 










Sommario :    VFR   VFR Marginale   IFR   IFR Intensivo   IFR Molto Intensivo
Visibilità : 
Base nubi : 
>= 8 km
>= 3000ft
5 / 8 km
1000 / 3000 ft
1500m / 5 km
500 / 1000 ft
800 / 1500m
200 / 500 ft
< 800m
< 200 ft
Simboli :   Temporali  Nebbia  Neve Forte  Precipitazioni Forti  Vento > 20 kt
SIGMETs :   Varie  Temporali  Ghiacco  Turbolenza  Onda orograficha  Ceneri Vulcaniche






- Altitudine del aeroporto : 1106 ft


LFSO - Nancy / Ochey

ULTIMO METAR :
  • 042130Z AUTO 30007KT 9999 SCT011 SCT036 OVC062 11/10 Q1001

METARs OBSOLETI :
  • 042100Z AUTO 29006KT 9999 SCT013 SCT027 BKN047 11/11 Q1000 NOSIG
  • 042030Z AUTO 29008KT 9999 -DZ SCT014 SCT019 BKN028 12/11 Q1000 NOSIG
  • 042000Z AUTO 30005KT 7000 BKN013 OVC025 12/11 Q1000 BECMG BKN015 BKN025
  • 041930Z AUTO 31005KT 6000 BKN018 BKN025 OVC038 13/12 Q0999 NOSIG
  • 041900Z AUTO 27004KT 6000 BKN020/// BKN042/// BKN049/// ///TCU 13/12 Q0999 TEMPO 4000 -SHRA BECMG BKN015 BKN025

TAF TAF LFSO
Valido dal 04 a 21 ore il 05 a 21 ore UTC


042000Z 0421/0521 30010KT 7000 SCT010 BKN015 BKN025
BECMG 0422/0424 24005KT BKN035
BECMG 0503/0505 BKN005 OVC040
BECMG 0506/0508 24015KT BKN015
TEMPO 0510/0513 23015G30KT 3000 SHRA SCT010 BKN015TCU
BECMG 0516/0518 26015G30KT 4000 -RA BKN009 OVC015



MetMap, La meteo Aeronautica in un colpo d'occhio ! - Copyright ORBIFLY Dicembre 2007 - Disclaimer

ORBIFLY MET'MAP TEAM :

Programmazione e sviluppo : Alexandra Zaïnal
Concezione : Baudouin d'Aumeries
Aiuto per la programmazione : Marc-Olivier Méhu
Supporto tecnico e logistico : Manuel Goepfert
Aiuto per la traduzione : Arnaldo La Scala

Contatto : metmap@orbifly.com




FONTI E CREDITI :

   NOAA